sensor_id;sensor_type;location;lat;lon;timestamp;P1;durP1;ratioP1;P2;durP2;ratioP2
76336;SDS011;65157;50.082;18.178;2023-06-10T00:01:05;15.90;;;12.00;;
76336;SDS011;65157;50.082;18.178;2023-06-10T00:03:54;16.20;;;11.70;;
76336;SDS011;65157;50.082;18.178;2023-06-10T00:06:20;16.00;;;11.80;;
76336;SDS011;65157;50.082;18.178;2023-06-10T00:08:47;18.10;;;12.40;;
76336;SDS011;65157;50.082;18.178;2023-06-10T00:11:13;17.90;;;12.00;;
76336;SDS011;65157;50.082;18.178;2023-06-10T00:13:40;18.70;;;12.40;;
76336;SDS011;65157;50.082;18.178;2023-06-10T00:16:07;16.70;;;12.40;;
76336;SDS011;65157;50.082;18.178;2023-06-10T00:18:34;14.20;;;11.80;;
76336;SDS011;65157;50.082;18.178;2023-06-10T00:21:00;17.10;;;11.20;;
76336;SDS011;65157;50.082;18.178;2023-06-10T00:25:55;15.80;;;12.50;;
76336;SDS011;65157;50.082;18.178;2023-06-10T00:28:22;15.40;;;11.60;;
76336;SDS011;65157;50.082;18.178;2023-06-10T00:30:48;14.10;;;11.80;;
76336;SDS011;65157;50.082;18.178;2023-06-10T00:33:15;19.60;;;13.70;;
76336;SDS011;65157;50.082;18.178;2023-06-10T00:35:41;29.30;;;14.00;;
76336;SDS011;65157;50.082;18.178;2023-06-10T00:38:08;17.70;;;14.40;;
76336;SDS011;65157;50.082;18.178;2023-06-10T00:43:08;16.70;;;12.90;;
76336;SDS011;65157;50.082;18.178;2023-06-10T00:45:35;17.30;;;12.60;;
76336;SDS011;65157;50.082;18.178;2023-06-10T00:50:28;19.40;;;13.80;;
76336;SDS011;65157;50.082;18.178;2023-06-10T00:52:56;17.60;;;13.60;;
76336;SDS011;65157;50.082;18.178;2023-06-10T00:55:24;18.60;;;15.00;;
76336;SDS011;65157;50.082;18.178;2023-06-10T00:57:51;19.80;;;14.60;;
76336;SDS011;65157;50.082;18.178;2023-06-10T01:00:17;18.10;;;14.60;;
76336;SDS011;65157;50.082;18.178;2023-06-10T01:02:44;17.30;;;14.30;;
76336;SDS011;65157;50.082;18.178;2023-06-10T01:05:11;15.30;;;13.30;;
76336;SDS011;65157;50.082;18.178;2023-06-10T01:10:22;16.80;;;13.00;;
76336;SDS011;65157;50.082;18.178;2023-06-10T01:15:36;16.30;;;13.40;;
76336;SDS011;65157;50.082;18.178;2023-06-10T01:18:12;18.70;;;13.70;;
76336;SDS011;65157;50.082;18.178;2023-06-10T01:20:38;17.40;;;13.20;;
76336;SDS011;65157;50.082;18.178;2023-06-10T01:23:05;17.60;;;13.40;;
76336;SDS011;65157;50.082;18.178;2023-06-10T01:25:33;17.20;;;12.50;;
76336;SDS011;65157;50.082;18.178;2023-06-10T01:28:02;17.50;;;12.90;;
76336;SDS011;65157;50.082;18.178;2023-06-10T01:30:43;16.50;;;13.40;;
76336;SDS011;65157;50.082;18.178;2023-06-10T01:33:12;20.00;;;13.50;;
76336;SDS011;65157;50.082;18.178;2023-06-10T01:35:42;15.90;;;13.40;;
76336;SDS011;65157;50.082;18.178;2023-06-10T01:38:10;17.90;;;14.10;;
76336;SDS011;65157;50.082;18.178;2023-06-10T01:40:41;16.60;;;13.10;;
76336;SDS011;65157;50.082;18.178;2023-06-10T01:43:08;17.50;;;13.90;;
76336;SDS011;65157;50.082;18.178;2023-06-10T01:45:35;18.20;;;11.90;;
76336;SDS011;65157;50.082;18.178;2023-06-10T01:48:02;18.20;;;13.30;;
76336;SDS011;65157;50.082;18.178;2023-06-10T01:50:29;18.50;;;13.50;;
76336;SDS011;65157;50.082;18.178;2023-06-10T01:52:56;19.90;;;14.80;;
76336;SDS011;65157;50.082;18.178;2023-06-10T01:55:24;16.20;;;12.70;;
76336;SDS011;65157;50.082;18.178;2023-06-10T01:57:52;20.00;;;14.20;;
76336;SDS011;65157;50.082;18.178;2023-06-10T02:00:18;20.40;;;15.10;;
76336;SDS011;65157;50.082;18.178;2023-06-10T02:05:11;18.00;;;13.10;;
76336;SDS011;65157;50.082;18.178;2023-06-10T02:07:38;18.10;;;12.60;;
76336;SDS011;65157;50.082;18.178;2023-06-10T02:10:06;19.40;;;14.30;;
76336;SDS011;65157;50.082;18.178;2023-06-10T02:12:33;18.60;;;14.60;;
76336;SDS011;65157;50.082;18.178;2023-06-10T02:15:00;20.80;;;14.50;;
76336;SDS011;65157;50.082;18.178;2023-06-10T02:17:26;21.30;;;13.20;;
76336;SDS011;65157;50.082;18.178;2023-06-10T02:19:53;19.00;;;14.60;;
76336;SDS011;65157;50.082;18.178;2023-06-10T02:22:23;19.70;;;13.40;;
76336;SDS011;65157;50.082;18.178;2023-06-10T02:24:49;16.70;;;13.50;;
76336;SDS011;65157;50.082;18.178;2023-06-10T02:27:16;16.60;;;12.50;;
76336;SDS011;65157;50.082;18.178;2023-06-10T02:29:44;18.70;;;12.80;;
76336;SDS011;65157;50.082;18.178;2023-06-10T02:32:11;15.70;;;13.00;;
76336;SDS011;65157;50.082;18.178;2023-06-10T02:34:37;16.00;;;13.30;;
76336;SDS011;65157;50.082;18.178;2023-06-10T02:37:04;16.30;;;13.30;;
76336;SDS011;65157;50.082;18.178;2023-06-10T02:39:31;18.60;;;13.40;;
76336;SDS011;65157;50.082;18.178;2023-06-10T02:41:58;17.30;;;13.40;;
76336;SDS011;65157;50.082;18.178;2023-06-10T02:44:24;18.40;;;12.30;;
76336;SDS011;65157;50.082;18.178;2023-06-10T02:46:51;15.50;;;13.40;;
76336;SDS011;65157;50.082;18.178;2023-06-10T02:49:18;18.60;;;12.30;;
76336;SDS011;65157;50.082;18.178;2023-06-10T02:51:44;16.00;;;10.90;;
76336;SDS011;65157;50.082;18.178;2023-06-10T02:54:11;16.80;;;11.40;;
76336;SDS011;65157;50.082;18.178;2023-06-10T02:56:38;14.10;;;12.50;;
76336;SDS011;65157;50.082;18.178;2023-06-10T02:59:05;19.20;;;12.20;;
76336;SDS011;65157;50.082;18.178;2023-06-10T03:01:31;16.30;;;12.20;;
76336;SDS011;65157;50.082;18.178;2023-06-10T03:03:58;15.40;;;12.50;;
76336;SDS011;65157;50.082;18.178;2023-06-10T03:06:24;18.30;;;13.40;;
76336;SDS011;65157;50.082;18.178;2023-06-10T03:08:52;21.60;;;12.90;;
76336;SDS011;65157;50.082;18.178;2023-06-10T03:11:19;15.40;;;11.30;;
76336;SDS011;65157;50.082;18.178;2023-06-10T03:13:45;16.20;;;12.80;;
76336;SDS011;65157;50.082;18.178;2023-06-10T03:16:12;18.90;;;12.60;;
76336;SDS011;65157;50.082;18.178;2023-06-10T03:18:39;14.80;;;12.60;;
76336;SDS011;65157;50.082;18.178;2023-06-10T03:21:05;19.20;;;12.70;;
76336;SDS011;65157;50.082;18.178;2023-06-10T03:25:58;15.40;;;12.60;;
76336;SDS011;65157;50.082;18.178;2023-06-10T03:28:25;22.30;;;12.10;;
76336;SDS011;65157;50.082;18.178;2023-06-10T03:30:52;18.90;;;13.00;;
76336;SDS011;65157;50.082;18.178;2023-06-10T03:33:18;20.80;;;13.60;;
76336;SDS011;65157;50.082;18.178;2023-06-10T03:35:45;19.60;;;14.00;;
76336;SDS011;65157;50.082;18.178;2023-06-10T03:40:38;17.30;;;13.60;;
76336;SDS011;65157;50.082;18.178;2023-06-10T03:45:32;16.10;;;12.50;;
76336;SDS011;65157;50.082;18.178;2023-06-10T03:48:00;17.70;;;14.20;;
76336;SDS011;65157;50.082;18.178;2023-06-10T03:50:27;16.80;;;12.90;;
76336;SDS011;65157;50.082;18.178;2023-06-10T03:52:54;18.50;;;13.70;;
76336;SDS011;65157;50.082;18.178;2023-06-10T03:55:23;16.20;;;12.80;;
76336;SDS011;65157;50.082;18.178;2023-06-10T03:57:50;21.60;;;12.70;;
76336;SDS011;65157;50.082;18.178;2023-06-10T04:00:17;17.40;;;14.20;;
76336;SDS011;65157;50.082;18.178;2023-06-10T04:02:44;18.50;;;15.10;;
76336;SDS011;65157;50.082;18.178;2023-06-10T04:05:11;17.80;;;13.00;;
76336;SDS011;65157;50.082;18.178;2023-06-10T04:07:38;17.20;;;12.90;;
76336;SDS011;65157;50.082;18.178;2023-06-10T04:10:05;19.60;;;15.40;;
76336;SDS011;65157;50.082;18.178;2023-06-10T04:12:35;20.00;;;15.20;;
76336;SDS011;65157;50.082;18.178;2023-06-10T04:15:04;20.10;;;15.00;;
76336;SDS011;65157;50.082;18.178;2023-06-10T04:17:34;18.00;;;15.40;;
76336;SDS011;65157;50.082;18.178;2023-06-10T04:20:02;18.60;;;16.60;;
76336;SDS011;65157;50.082;18.178;2023-06-10T04:22:29;21.90;;;16.50;;
76336;SDS011;65157;50.082;18.178;2023-06-10T04:27:22;18.80;;;15.70;;
76336;SDS011;65157;50.082;18.178;2023-06-10T04:32:17;20.70;;;14.90;;
76336;SDS011;65157;50.082;18.178;2023-06-10T04:34:44;21.20;;;16.40;;
76336;SDS011;65157;50.082;18.178;2023-06-10T04:37:10;20.50;;;15.40;;
76336;SDS011;65157;50.082;18.178;2023-06-10T04:39:37;21.80;;;16.60;;
76336;SDS011;65157;50.082;18.178;2023-06-10T04:42:04;24.10;;;18.90;;
76336;SDS011;65157;50.082;18.178;2023-06-10T04:44:32;24.40;;;17.30;;
76336;SDS011;65157;50.082;18.178;2023-06-10T04:46:58;23.50;;;18.90;;
76336;SDS011;65157;50.082;18.178;2023-06-10T04:49:25;25.50;;;17.40;;
76336;SDS011;65157;50.082;18.178;2023-06-10T04:51:52;23.90;;;19.20;;
76336;SDS011;65157;50.082;18.178;2023-06-10T04:54:19;22.90;;;18.10;;
76336;SDS011;65157;50.082;18.178;2023-06-10T04:56:45;22.30;;;16.40;;
76336;SDS011;65157;50.082;18.178;2023-06-10T04:59:12;24.20;;;19.00;;
76336;SDS011;65157;50.082;18.178;2023-06-10T05:01:39;26.40;;;19.00;;
76336;SDS011;65157;50.082;18.178;2023-06-10T05:04:05;26.10;;;20.40;;
76336;SDS011;65157;50.082;18.178;2023-06-10T05:08:59;26.90;;;18.80;;
76336;SDS011;65157;50.082;18.178;2023-06-10T05:11:26;24.70;;;19.90;;
76336;SDS011;65157;50.082;18.178;2023-06-10T05:13:53;29.20;;;22.60;;
76336;SDS011;65157;50.082;18.178;2023-06-10T05:16:20;26.60;;;21.10;;
76336;SDS011;65157;50.082;18.178;2023-06-10T05:21:13;25.00;;;18.90;;
76336;SDS011;65157;50.082;18.178;2023-06-10T05:26:06;23.30;;;17.90;;
76336;SDS011;65157;50.082;18.178;2023-06-10T05:28:33;24.70;;;19.80;;
76336;SDS011;65157;50.082;18.178;2023-06-10T05:30:59;25.80;;;20.50;;
76336;SDS011;65157;50.082;18.178;2023-06-10T05:35:53;26.30;;;17.70;;
76336;SDS011;65157;50.082;18.178;2023-06-10T05:40:46;24.60;;;20.60;;
76336;SDS011;65157;50.082;18.178;2023-06-10T05:43:13;24.20;;;20.40;;
76336;SDS011;65157;50.082;18.178;2023-06-10T05:45:40;27.10;;;19.30;;
76336;SDS011;65157;50.082;18.178;2023-06-10T05:48:07;24.10;;;18.60;;
76336;SDS011;65157;50.082;18.178;2023-06-10T05:53:00;23.70;;;20.30;;
76336;SDS011;65157;50.082;18.178;2023-06-10T05:57:58;23.60;;;18.80;;
76336;SDS011;65157;50.082;18.178;2023-06-10T06:00:25;22.50;;;18.60;;
76336;SDS011;65157;50.082;18.178;2023-06-10T06:02:52;23.60;;;19.00;;
76336;SDS011;65157;50.082;18.178;2023-06-10T06:05:19;18.90;;;16.60;;
76336;SDS011;65157;50.082;18.178;2023-06-10T06:07:46;23.10;;;17.30;;
76336;SDS011;65157;50.082;18.178;2023-06-10T06:10:13;22.90;;;17.70;;
76336;SDS011;65157;50.082;18.178;2023-06-10T06:15:07;21.10;;;15.80;;
76336;SDS011;65157;50.082;18.178;2023-06-10T06:17:34;22.60;;;15.90;;
76336;SDS011;65157;50.082;18.178;2023-06-10T06:22:27;19.80;;;15.00;;
76336;SDS011;65157;50.082;18.178;2023-06-10T06:24:54;19.70;;;17.60;;
76336;SDS011;65157;50.082;18.178;2023-06-10T06:27:21;18.90;;;15.20;;
76336;SDS011;65157;50.082;18.178;2023-06-10T06:29:48;17.50;;;15.20;;
76336;SDS011;65157;50.082;18.178;2023-06-10T06:34:42;15.30;;;13.20;;
76336;SDS011;65157;50.082;18.178;2023-06-10T06:39:35;15.80;;;13.60;;
76336;SDS011;65157;50.082;18.178;2023-06-10T06:42:02;16.90;;;14.20;;
76336;SDS011;65157;50.082;18.178;2023-06-10T06:44:28;16.20;;;14.00;;
76336;SDS011;65157;50.082;18.178;2023-06-10T06:46:55;15.30;;;13.70;;
76336;SDS011;65157;50.082;18.178;2023-06-10T06:51:48;15.10;;;12.90;;
76336;SDS011;65157;50.082;18.178;2023-06-10T06:54:15;16.30;;;12.60;;
76336;SDS011;65157;50.082;18.178;2023-06-10T06:56:42;14.20;;;12.70;;
76336;SDS011;65157;50.082;18.178;2023-06-10T07:01:35;14.10;;;12.30;;
76336;SDS011;65157;50.082;18.178;2023-06-10T07:04:02;14.70;;;11.40;;
76336;SDS011;65157;50.082;18.178;2023-06-10T07:06:29;13.40;;;12.00;;
76336;SDS011;65157;50.082;18.178;2023-06-10T07:11:22;13.00;;;10.50;;
76336;SDS011;65157;50.082;18.178;2023-06-10T07:13:50;11.90;;;10.50;;
76336;SDS011;65157;50.082;18.178;2023-06-10T07:16:17;12.10;;;9.30;;
76336;SDS011;65157;50.082;18.178;2023-06-10T07:18:43;12.50;;;11.20;;
76336;SDS011;65157;50.082;18.178;2023-06-10T07:21:12;11.90;;;10.40;;
76336;SDS011;65157;50.082;18.178;2023-06-10T07:23:42;11.00;;;9.30;;
76336;SDS011;65157;50.082;18.178;2023-06-10T07:26:09;12.30;;;10.30;;
76336;SDS011;65157;50.082;18.178;2023-06-10T07:28:37;11.40;;;10.20;;
76336;SDS011;65157;50.082;18.178;2023-06-10T07:31:03;11.70;;;10.60;;
76336;SDS011;65157;50.082;18.178;2023-06-10T07:35:57;10.40;;;9.40;;
76336;SDS011;65157;50.082;18.178;2023-06-10T07:40:51;14.60;;;10.70;;
76336;SDS011;65157;50.082;18.178;2023-06-10T07:43:18;12.50;;;10.70;;
76336;SDS011;65157;50.082;18.178;2023-06-10T07:45:45;11.40;;;8.90;;
76336;SDS011;65157;50.082;18.178;2023-06-10T07:48:12;16.00;;;9.00;;
76336;SDS011;65157;50.082;18.178;2023-06-10T07:53:05;12.00;;;10.60;;
76336;SDS011;65157;50.082;18.178;2023-06-10T07:55:32;11.50;;;10.30;;
76336;SDS011;65157;50.082;18.178;2023-06-10T08:00:25;11.90;;;8.50;;
76336;SDS011;65157;50.082;18.178;2023-06-10T08:02:52;12.20;;;10.20;;
76336;SDS011;65157;50.082;18.178;2023-06-10T08:05:18;11.30;;;10.10;;
76336;SDS011;65157;50.082;18.178;2023-06-10T08:07:45;15.50;;;10.60;;
76336;SDS011;65157;50.082;18.178;2023-06-10T08:10:12;13.70;;;9.10;;
76336;SDS011;65157;50.082;18.178;2023-06-10T08:12:39;13.50;;;10.00;;
76336;SDS011;65157;50.082;18.178;2023-06-10T08:17:32;12.10;;;9.30;;
76336;SDS011;65157;50.082;18.178;2023-06-10T08:20:00;8.70;;;7.80;;
76336;SDS011;65157;50.082;18.178;2023-06-10T08:22:27;8.80;;;6.80;;
76336;SDS011;65157;50.082;18.178;2023-06-10T08:24:54;10.80;;;8.30;;
76336;SDS011;65157;50.082;18.178;2023-06-10T08:27:21;7.80;;;7.10;;
76336;SDS011;65157;50.082;18.178;2023-06-10T08:29:48;8.10;;;7.40;;
76336;SDS011;65157;50.082;18.178;2023-06-10T08:32:14;9.40;;;7.50;;
76336;SDS011;65157;50.082;18.178;2023-06-10T08:37:07;7.20;;;6.20;;
76336;SDS011;65157;50.082;18.178;2023-06-10T08:44:53;6.20;;;5.70;;
76336;SDS011;65157;50.082;18.178;2023-06-10T08:47:22;6.10;;;5.50;;
76336;SDS011;65157;50.082;18.178;2023-06-10T08:49:50;6.10;;;5.50;;
76336;SDS011;65157;50.082;18.178;2023-06-10T08:52:18;6.50;;;5.30;;
76336;SDS011;65157;50.082;18.178;2023-06-10T08:54:52;6.80;;;6.20;;
76336;SDS011;65157;50.082;18.178;2023-06-10T08:57:22;7.10;;;6.10;;
76336;SDS011;65157;50.082;18.178;2023-06-10T08:59:49;6.50;;;5.80;;
76336;SDS011;65157;50.082;18.178;2023-06-10T09:02:16;6.00;;;5.40;;
76336;SDS011;65157;50.082;18.178;2023-06-10T09:04:43;7.80;;;6.10;;
76336;SDS011;65157;50.082;18.178;2023-06-10T09:07:12;6.90;;;5.80;;
76336;SDS011;65157;50.082;18.178;2023-06-10T09:09:44;7.00;;;6.30;;
76336;SDS011;65157;50.082;18.178;2023-06-10T09:12:13;7.50;;;6.50;;
76336;SDS011;65157;50.082;18.178;2023-06-10T09:14:41;7.60;;;6.50;;
76336;SDS011;65157;50.082;18.178;2023-06-10T09:17:08;8.40;;;7.70;;
76336;SDS011;65157;50.082;18.178;2023-06-10T09:19:35;7.60;;;6.80;;
76336;SDS011;65157;50.082;18.178;2023-06-10T09:22:03;8.80;;;7.90;;
76336;SDS011;65157;50.082;18.178;2023-06-10T09:24:30;9.20;;;8.30;;
76336;SDS011;65157;50.082;18.178;2023-06-10T09:27:04;8.70;;;7.80;;
76336;SDS011;65157;50.082;18.178;2023-06-10T09:29:32;8.00;;;7.20;;
76336;SDS011;65157;50.082;18.178;2023-06-10T09:32:12;8.90;;;8.10;;
76336;SDS011;65157;50.082;18.178;2023-06-10T09:34:39;10.50;;;8.50;;
76336;SDS011;65157;50.082;18.178;2023-06-10T09:37:06;9.40;;;8.20;;
76336;SDS011;65157;50.082;18.178;2023-06-10T09:39:33;8.30;;;7.40;;
76336;SDS011;65157;50.082;18.178;2023-06-10T09:44:26;8.00;;;7.20;;
76336;SDS011;65157;50.082;18.178;2023-06-10T09:46:52;9.30;;;8.50;;
76336;SDS011;65157;50.082;18.178;2023-06-10T09:49:19;11.70;;;9.00;;
76336;SDS011;65157;50.082;18.178;2023-06-10T09:51:49;10.40;;;9.40;;
76336;SDS011;65157;50.082;18.178;2023-06-10T09:54:18;9.00;;;8.10;;
76336;SDS011;65157;50.082;18.178;2023-06-10T09:56:48;9.70;;;8.60;;
76336;SDS011;65157;50.082;18.178;2023-06-10T09:59:29;12.10;;;8.70;;
76336;SDS011;65157;50.082;18.178;2023-06-10T10:01:57;10.80;;;7.90;;
76336;SDS011;65157;50.082;18.178;2023-06-10T10:04:24;13.10;;;8.70;;
76336;SDS011;65157;50.082;18.178;2023-06-10T10:06:51;10.40;;;7.70;;
76336;SDS011;65157;50.082;18.178;2023-06-10T10:09:18;8.20;;;7.40;;
76336;SDS011;65157;50.082;18.178;2023-06-10T10:11:45;10.40;;;8.80;;
76336;SDS011;65157;50.082;18.178;2023-06-10T10:14:13;11.10;;;9.50;;
76336;SDS011;65157;50.082;18.178;2023-06-10T10:16:46;8.50;;;7.70;;
76336;SDS011;65157;50.082;18.178;2023-06-10T10:19:25;11.10;;;6.90;;
76336;SDS011;65157;50.082;18.178;2023-06-10T10:24:57;9.90;;;6.30;;
76336;SDS011;65157;50.082;18.178;2023-06-10T10:28:11;10.60;;;7.60;;
76336;SDS011;65157;50.082;18.178;2023-06-10T10:30:21;8.70;;;7.80;;
76336;SDS011;65157;50.082;18.178;2023-06-10T10:35:41;10.20;;;9.10;;
76336;SDS011;65157;50.082;18.178;2023-06-10T10:38:08;8.30;;;7.50;;
76336;SDS011;65157;50.082;18.178;2023-06-10T10:40:35;7.50;;;6.90;;
76336;SDS011;65157;50.082;18.178;2023-06-10T10:43:03;10.10;;;8.00;;
76336;SDS011;65157;50.082;18.178;2023-06-10T10:45:34;9.90;;;9.00;;
76336;SDS011;65157;50.082;18.178;2023-06-10T10:48:04;9.30;;;8.40;;
76336;SDS011;65157;50.082;18.178;2023-06-10T10:50:34;7.80;;;7.00;;
76336;SDS011;65157;50.082;18.178;2023-06-10T10:53:02;7.10;;;6.40;;
76336;SDS011;65157;50.082;18.178;2023-06-10T10:55:29;8.10;;;6.80;;
76336;SDS011;65157;50.082;18.178;2023-06-10T10:58:02;9.40;;;8.40;;
76336;SDS011;65157;50.082;18.178;2023-06-10T11:00:31;7.90;;;6.50;;
76336;SDS011;65157;50.082;18.178;2023-06-10T11:03:08;9.70;;;7.70;;
76336;SDS011;65157;50.082;18.178;2023-06-10T11:05:39;7.50;;;6.40;;
76336;SDS011;65157;50.082;18.178;2023-06-10T11:08:08;8.10;;;6.50;;
76336;SDS011;65157;50.082;18.178;2023-06-10T11:10:39;6.60;;;5.90;;
76336;SDS011;65157;50.082;18.178;2023-06-10T11:13:09;6.10;;;5.30;;
76336;SDS011;65157;50.082;18.178;2023-06-10T11:15:43;6.00;;;5.40;;
76336;SDS011;65157;50.082;18.178;2023-06-10T11:18:14;8.20;;;7.60;;
76336;SDS011;65157;50.082;18.178;2023-06-10T11:21:04;7.90;;;7.30;;
76336;SDS011;65157;50.082;18.178;2023-06-10T11:26:17;5.90;;;5.00;;
76336;SDS011;65157;50.082;18.178;2023-06-10T11:31:20;6.50;;;5.60;;
76336;SDS011;65157;50.082;18.178;2023-06-10T11:33:59;6.70;;;6.10;;
76336;SDS011;65157;50.082;18.178;2023-06-10T11:36:29;6.90;;;6.30;;
76336;SDS011;65157;50.082;18.178;2023-06-10T11:39:02;7.10;;;6.50;;
76336;SDS011;65157;50.082;18.178;2023-06-10T11:41:30;5.70;;;4.60;;
76336;SDS011;65157;50.082;18.178;2023-06-10T11:44:16;6.10;;;5.70;;
76336;SDS011;65157;50.082;18.178;2023-06-10T11:46:44;7.10;;;6.60;;
76336;SDS011;65157;50.082;18.178;2023-06-10T11:49:11;6.80;;;6.30;;
76336;SDS011;65157;50.082;18.178;2023-06-10T11:51:39;4.90;;;4.50;;
76336;SDS011;65157;50.082;18.178;2023-06-10T11:54:09;5.00;;;4.70;;
76336;SDS011;65157;50.082;18.178;2023-06-10T11:56:36;4.60;;;4.10;;
76336;SDS011;65157;50.082;18.178;2023-06-10T11:59:06;5.00;;;3.90;;
76336;SDS011;65157;50.082;18.178;2023-06-10T12:01:34;4.20;;;3.90;;
76336;SDS011;65157;50.082;18.178;2023-06-10T12:04:06;6.40;;;5.80;;
76336;SDS011;65157;50.082;18.178;2023-06-10T12:06:53;5.80;;;5.40;;
76336;SDS011;65157;50.082;18.178;2023-06-10T12:09:20;5.50;;;5.10;;
76336;SDS011;65157;50.082;18.178;2023-06-10T12:12:00;4.70;;;4.30;;
76336;SDS011;65157;50.082;18.178;2023-06-10T12:14:50;5.20;;;4.70;;
76336;SDS011;65157;50.082;18.178;2023-06-10T12:19:57;5.20;;;4.80;;
76336;SDS011;65157;50.082;18.178;2023-06-10T12:22:24;4.60;;;4.20;;
76336;SDS011;65157;50.082;18.178;2023-06-10T12:25:02;5.50;;;5.00;;
76336;SDS011;65157;50.082;18.178;2023-06-10T12:27:32;5.10;;;4.80;;
76336;SDS011;65157;50.082;18.178;2023-06-10T12:30:00;5.00;;;4.70;;
76336;SDS011;65157;50.082;18.178;2023-06-10T12:32:39;6.00;;;5.60;;
76336;SDS011;65157;50.082;18.178;2023-06-10T12:35:07;4.40;;;3.60;;
76336;SDS011;65157;50.082;18.178;2023-06-10T12:37:35;4.70;;;4.30;;
76336;SDS011;65157;50.082;18.178;2023-06-10T12:40:04;3.90;;;3.60;;
76336;SDS011;65157;50.082;18.178;2023-06-10T12:42:32;4.80;;;4.50;;
76336;SDS011;65157;50.082;18.178;2023-06-10T12:44:59;5.30;;;4.90;;
76336;SDS011;65157;50.082;18.178;2023-06-10T12:47:33;4.30;;;4.00;;
76336;SDS011;65157;50.082;18.178;2023-06-10T12:50:01;5.60;;;5.10;;
76336;SDS011;65157;50.082;18.178;2023-06-10T12:52:31;4.50;;;4.10;;
76336;SDS011;65157;50.082;18.178;2023-06-10T12:54:58;5.20;;;4.40;;
76336;SDS011;65157;50.082;18.178;2023-06-10T12:57:25;5.80;;;5.40;;
76336;SDS011;65157;50.082;18.178;2023-06-10T12:59:54;5.80;;;5.40;;
76336;SDS011;65157;50.082;18.178;2023-06-10T13:02:21;8.10;;;5.00;;
76336;SDS011;65157;50.082;18.178;2023-06-10T13:04:48;5.20;;;4.80;;
76336;SDS011;65157;50.082;18.178;2023-06-10T13:07:14;4.40;;;4.10;;
76336;SDS011;65157;50.082;18.178;2023-06-10T13:09:42;5.30;;;4.80;;
76336;SDS011;65157;50.082;18.178;2023-06-10T13:12:09;6.60;;;6.10;;
76336;SDS011;65157;50.082;18.178;2023-06-10T13:14:36;7.80;;;7.10;;
76336;SDS011;65157;50.082;18.178;2023-06-10T13:17:04;5.20;;;4.80;;
76336;SDS011;65157;50.082;18.178;2023-06-10T13:19:32;6.80;;;6.20;;
76336;SDS011;65157;50.082;18.178;2023-06-10T13:22:02;5.20;;;4.70;;
76336;SDS011;65157;50.082;18.178;2023-06-10T13:24:29;5.50;;;5.00;;
76336;SDS011;65157;50.082;18.178;2023-06-10T13:26:56;5.80;;;5.40;;
76336;SDS011;65157;50.082;18.178;2023-06-10T13:29:23;5.50;;;5.00;;
76336;SDS011;65157;50.082;18.178;2023-06-10T13:31:49;6.60;;;5.80;;
76336;SDS011;65157;50.082;18.178;2023-06-10T13:34:16;6.00;;;5.60;;
76336;SDS011;65157;50.082;18.178;2023-06-10T13:36:44;6.50;;;6.00;;
76336;SDS011;65157;50.082;18.178;2023-06-10T13:39:11;5.70;;;4.70;;
76336;SDS011;65157;50.082;18.178;2023-06-10T13:41:37;5.80;;;5.20;;
76336;SDS011;65157;50.082;18.178;2023-06-10T13:44:06;5.60;;;5.10;;
76336;SDS011;65157;50.082;18.178;2023-06-10T13:46:35;5.90;;;5.40;;
76336;SDS011;65157;50.082;18.178;2023-06-10T13:49:02;7.40;;;6.80;;
76336;SDS011;65157;50.082;18.178;2023-06-10T13:51:28;5.00;;;4.50;;
76336;SDS011;65157;50.082;18.178;2023-06-10T13:53:55;5.40;;;5.00;;
76336;SDS011;65157;50.082;18.178;2023-06-10T13:56:22;6.00;;;5.50;;
76336;SDS011;65157;50.082;18.178;2023-06-10T13:58:49;4.70;;;4.30;;
76336;SDS011;65157;50.082;18.178;2023-06-10T14:01:16;5.20;;;4.70;;
76336;SDS011;65157;50.082;18.178;2023-06-10T14:03:42;4.40;;;4.00;;
76336;SDS011;65157;50.082;18.178;2023-06-10T14:06:09;5.50;;;5.10;;
76336;SDS011;65157;50.082;18.178;2023-06-10T14:08:36;6.10;;;5.50;;
76336;SDS011;65157;50.082;18.178;2023-06-10T14:11:02;4.60;;;4.30;;
76336;SDS011;65157;50.082;18.178;2023-06-10T14:13:30;5.90;;;5.40;;
76336;SDS011;65157;50.082;18.178;2023-06-10T14:15:56;5.40;;;5.00;;
76336;SDS011;65157;50.082;18.178;2023-06-10T14:18:25;7.10;;;6.50;;
76336;SDS011;65157;50.082;18.178;2023-06-10T14:20:51;6.20;;;5.40;;
76336;SDS011;65157;50.082;18.178;2023-06-10T14:23:18;6.80;;;6.30;;
76336;SDS011;65157;50.082;18.178;2023-06-10T14:25:44;7.30;;;6.60;;
76336;SDS011;65157;50.082;18.178;2023-06-10T14:28:11;5.80;;;5.30;;
76336;SDS011;65157;50.082;18.178;2023-06-10T14:30:38;5.60;;;5.20;;
76336;SDS011;65157;50.082;18.178;2023-06-10T14:33:05;7.30;;;6.70;;
76336;SDS011;65157;50.082;18.178;2023-06-10T14:35:31;6.30;;;5.60;;
76336;SDS011;65157;50.082;18.178;2023-06-10T14:37:58;6.40;;;5.80;;
76336;SDS011;65157;50.082;18.178;2023-06-10T14:40:25;7.00;;;5.70;;
76336;SDS011;65157;50.082;18.178;2023-06-10T14:42:52;6.60;;;6.00;;
76336;SDS011;65157;50.082;18.178;2023-06-10T14:45:19;6.90;;;6.40;;
76336;SDS011;65157;50.082;18.178;2023-06-10T14:47:46;6.80;;;6.20;;
76336;SDS011;65157;50.082;18.178;2023-06-10T14:50:12;5.90;;;5.30;;
76336;SDS011;65157;50.082;18.178;2023-06-10T14:52:39;6.70;;;5.90;;
76336;SDS011;65157;50.082;18.178;2023-06-10T14:55:06;7.00;;;6.50;;
76336;SDS011;65157;50.082;18.178;2023-06-10T14:57:33;6.20;;;5.70;;
76336;SDS011;65157;50.082;18.178;2023-06-10T14:59:59;8.40;;;7.60;;
76336;SDS011;65157;50.082;18.178;2023-06-10T15:02:26;5.90;;;5.20;;
76336;SDS011;65157;50.082;18.178;2023-06-10T15:04:53;7.00;;;6.20;;
76336;SDS011;65157;50.082;18.178;2023-06-10T15:07:19;5.20;;;4.70;;
76336;SDS011;65157;50.082;18.178;2023-06-10T15:09:46;5.50;;;5.10;;
76336;SDS011;65157;50.082;18.178;2023-06-10T15:12:13;5.50;;;5.10;;
76336;SDS011;65157;50.082;18.178;2023-06-10T15:14:40;9.00;;;5.10;;
76336;SDS011;65157;50.082;18.178;2023-06-10T15:17:07;4.50;;;4.10;;
76336;SDS011;65157;50.082;18.178;2023-06-10T15:19:33;10.20;;;5.00;;
76336;SDS011;65157;50.082;18.178;2023-06-10T15:22:00;7.20;;;5.00;;
76336;SDS011;65157;50.082;18.178;2023-06-10T15:24:26;8.20;;;6.10;;
76336;SDS011;65157;50.082;18.178;2023-06-10T15:26:53;7.70;;;6.10;;
76336;SDS011;65157;50.082;18.178;2023-06-10T15:29:20;5.80;;;5.30;;
76336;SDS011;65157;50.082;18.178;2023-06-10T15:31:46;6.90;;;5.30;;
76336;SDS011;65157;50.082;18.178;2023-06-10T15:34:13;5.60;;;5.10;;
76336;SDS011;65157;50.082;18.178;2023-06-10T15:36:40;4.20;;;3.80;;
76336;SDS011;65157;50.082;18.178;2023-06-10T15:39:06;5.80;;;5.30;;
76336;SDS011;65157;50.082;18.178;2023-06-10T15:41:33;7.50;;;6.80;;
76336;SDS011;65157;50.082;18.178;2023-06-10T15:44:00;5.40;;;4.90;;
76336;SDS011;65157;50.082;18.178;2023-06-10T15:46:28;5.60;;;5.00;;
76336;SDS011;65157;50.082;18.178;2023-06-10T15:48:56;4.40;;;4.10;;
76336;SDS011;65157;50.082;18.178;2023-06-10T15:51:23;5.90;;;5.00;;
76336;SDS011;65157;50.082;18.178;2023-06-10T15:53:50;6.30;;;5.70;;
76336;SDS011;65157;50.082;18.178;2023-06-10T15:56:18;4.80;;;4.40;;
76336;SDS011;65157;50.082;18.178;2023-06-10T15:58:45;5.40;;;4.70;;
76336;SDS011;65157;50.082;18.178;2023-06-10T16:01:12;6.20;;;5.70;;
76336;SDS011;65157;50.082;18.178;2023-06-10T16:03:38;5.50;;;5.00;;